Monday, November 24, 2014
21:34 UTC
  |  Log In   |  Register Free
Airport Search:

Pocono Mountains Municipal Airport
(KMPO)

Pocono Mountains Municipal Airport Diagram
No Airport Diagram Available

FAA data valid effective November 13, 2014 - January 08, 2015 (unless otherwise noted).

 
 
 
 
 
 
 
 
 
 
 
 
 
 

Current Aviation Weather for Pocono Mountains Municipal Airport (KMPO)

The most recent METAR observation for KMPO was updated at: 2116
METAR Summary (Translated METAR)
KMPO
242053Z AUTO 21019G27KT 10SM CLR 16/11 A2957 RMK AO2 PK WND 22031/2041 SLP013 T01560106 55001
KAVP
242054Z 20012G24KT 10SM CLR 19/11 A2951 RMK AO2 PK WND 20031/2007 SLP987 T01940111 53001
(19.6 nm NW from KMPO)
KABE
242051Z 20014KT 10SM SCT036 19/12 A2960 RMK AO2 PK WND 21026/2009 SLP021 T01940117 53009
(29.3 nm SW from KMPO)
TAF Summary (Translated TAF)
KAVP
(19.6 nm NW from KMPO)
241720Z 2418/2518 20015G25KT P6SM BKN060 WS020/19045KT FM250200 23010G20KT P6SM BKN060
KABE
(29.3 nm SW from KMPO)
241905Z 2419/2518 19018G28KT P6SM SCT030 BKN035 FM242200 21012G20KT P6SM SCT030 BKN040 FM250000 22009KT P6SM BKN060 FM250600 27007KT P6SM SCT025 BKN050 FM251500 27010G20KT P6SM BKN200
  Airport Weather Conditions for KMPO

 Current Weather at MPO
60° F
Fair and Breezy
Southwest winds at 21.9 mph
MPO NOAA Radar

Pressure: 29.57 in
Humidity: 72%
Wind: from the Southwest at 21.9 gusting to 31.1 MPH (19 gusting to 27 KT)
Dew Point: 51.1°F
Visibility: 10.00 mi


Airport Weather Forecast for KMPO

Translated METAR and TAF for KMPO
Translated METAR for KMPO (2129 UTC 24 November 2014)
found at http://aviationweather.gov/adds/metars/
 
METAR text: KMPO 242053Z AUTO 21019G27KT 10SM CLR 16/11 A2957 RMK AO2 PK WND 22031/2041 SLP013 T01560106 55001
Conditions at: KMPO (MT. POCONO , PA, US) observed 2053 UTC 24 November 2014
Temperature: 15.6°C (60°F)
Dewpoint: 10.6°C (51°F) [RH = 72%]
Pressure (altimeter): 29.57 inches Hg (1001.4 mb)
[Sea-level pressure: 1001.3 mb]
Winds: from the SSW (210 degrees) at 22 MPH (19 knots; 9.9 m/s)
gusting to 31 MPH (27 knots; 14.0 m/s)
Visibility: 10 or more miles (16+ km)
Ceiling: at least 12,000 feet AGL
Clouds: sky clear below 12,000 feet AGL
Weather: automated observation with no human augmentation;
there may or may not be significant weather present at this time
Translated TAF for KMPO

There is no translated TAF available for this airport

Find All Airport Services Find A Hotel Find A Rental Car Find A Golf Course Find A Restaurant $100 Hamburger



FBO's on the Field
FBO Company Facility Photos Services Transportation Aviation Fuel Prices: Prices include tax
Catering Weather Repair Courtesy Rental Type 100LL JetA JetA+ MOGAS 8087
 
Pocono Mountains Municipal Airport Authority

This FBO has not yet been rated
FS:Phillips 66
Last Updated: Nov-21
Login to update fuel prices
SS:
Contact Pocono Mountains Municipal Airport AuthorityMore FBO Information
 
Add another FBO Facility Photos Catering Weather Repair Courtesy Rental Type 100LL JetA JetA+ MOGAS 8087
Services Transportation Aviation Fuel Prices: Prices include tax


model-print
model-print
model-print
model-print